Time;durP1;ratioP1;P1;durP2;ratioP2;P2;SDS_P1;SDS_P2;PMS_P1;PMS_P2;Temp;Humidity;BMP_temperature;BMP_pressure;BME280_temperature;BME280_humidity;BME280_pressure;Samples;Min_cycle;Max_cycle;Signal;HPM_P1;HPM_P2
2022/01/19 00:01:42;;;;;;;14.67;9.23;;;;;;;;;;5072036;28;20429;-58
2022/01/19 00:04:08;;;;;;;16.77;9.53;;;;;;;;;;5071923;28;20306;-58
2022/01/19 00:06:34;;;;;;;16.17;10.50;;;;;;;;;;5071889;28;20794;-58
2022/01/19 00:09:00;;;;;;;16.67;10.33;;;;;;;;;;5072108;28;20434;-57
2022/01/19 00:11:26;;;;;;;13.87;9.57;;;;;;;;;;5071898;28;20238;-58
2022/01/19 00:13:52;;;;;;;13.37;9.23;;;;;;;;;;5071618;28;20485;-59
2022/01/19 00:16:18;;;;;;;19.50;10.67;;;;;;;;;;5071978;28;20503;-59
2022/01/19 00:18:47;;;;;;;18.83;10.90;;;;;;;;;;5071765;28;20437;-58
2022/01/19 00:21:13;;;;;;;17.53;10.73;;;;;;;;;;5071816;28;20496;-57
2022/01/19 00:23:39;;;;;;;17.20;10.10;;;;;;;;;;5071734;28;20425;-58
2022/01/19 00:26:05;;;;;;;17.90;10.13;;;;;;;;;;5071868;28;20206;-59
2022/01/19 00:28:31;;;;;;;21.40;10.37;;;;;;;;;;5071724;28;20231;-58
2022/01/19 00:30:57;;;;;;;16.67;10.63;;;;;;;;;;5071900;28;20512;-58
2022/01/19 00:33:24;;;;;;;17.53;10.80;;;;;;;;;;5071821;28;20506;-58
2022/01/19 00:35:51;;;;;;;16.23;10.17;;;;;;;;;;5072237;28;20223;-58
2022/01/19 00:38:17;;;;;;;13.13;9.83;;;;;;;;;;5075824;28;20939;-59
2022/01/19 00:40:43;;;;;;;16.60;10.77;;;;;;;;;;5075645;28;20445;-58
2022/01/19 00:43:09;;;;;;;15.93;10.07;;;;;;;;;;5075698;28;20916;-59
2022/01/19 00:45:35;;;;;;;15.53;10.33;;;;;;;;;;5075553;28;20512;-58
2022/01/19 00:48:01;;;;;;;17.53;10.47;;;;;;;;;;5075588;28;20239;-58
2022/01/19 00:50:28;;;;;;;18.50;10.60;;;;;;;;;;5075233;28;20457;-58
2022/01/19 00:52:55;;;;;;;18.43;11.13;;;;;;;;;;5075298;28;20621;-58
2022/01/19 00:55:22;;;;;;;19.73;11.30;;;;;;;;;;5075326;28;20569;-58
2022/01/19 00:57:48;;;;;;;14.30;10.90;;;;;;;;;;5075239;28;20482;-58
2022/01/19 01:00:17;;;;;;;20.53;11.80;;;;;;;;;;5075392;28;20445;-58
2022/01/19 01:02:43;;;;;;;15.10;10.20;;;;;;;;;;5075145;28;20533;-58
2022/01/19 01:05:09;;;;;;;19.67;11.07;;;;;;;;;;5075012;28;20528;-58
2022/01/19 01:07:38;;;;;;;18.07;10.93;;;;;;;;;;5075090;28;20195;-58
2022/01/19 01:10:06;;;;;;;17.00;10.23;;;;;;;;;;5075096;28;20434;-58
2022/01/19 01:12:48;;;;;;;16.20;11.67;;;;;;;;;;5074886;28;20479;-58
2022/01/19 01:18:19;;;;;;;15.07;11.10;;;;;;;;;;5055237;28;20431;-58
2022/01/19 01:20:46;;;;;;;17.47;10.73;;;;;;;;;;5074862;28;20456;-59
2022/01/19 01:23:12;;;;;;;17.70;10.97;;;;;;;;;;5074857;28;20931;-59
2022/01/19 01:25:40;;;;;;;17.67;11.93;;;;;;;;;;5074540;28;20925;-59
2022/01/19 01:28:06;;;;;;;19.00;11.30;;;;;;;;;;5074641;28;20489;-59
2022/01/19 01:30:32;;;;;;;18.53;11.23;;;;;;;;;;5074675;28;20445;-58
2022/01/19 01:32:58;;;;;;;21.00;11.80;;;;;;;;;;5074509;28;20449;-58
2022/01/19 01:35:24;;;;;;;20.17;11.77;;;;;;;;;;5072747;28;20569;-59
2022/01/19 01:37:50;;;;;;;18.50;12.57;;;;;;;;;;5073005;28;20520;-60
2022/01/19 01:40:16;;;;;;;18.90;11.27;;;;;;;;;;5074573;28;20503;-60
2022/01/19 01:42:44;;;;;;;16.23;10.87;;;;;;;;;;5074485;28;20440;-61
2022/01/19 01:45:13;;;;;;;17.50;11.60;;;;;;;;;;5074570;28;20437;-60
2022/01/19 01:47:48;;;;;;;18.47;12.30;;;;;;;;;;5073859;28;20480;-60
2022/01/19 01:55:25;;;;;;;16.97;11.30;;;;;;;;;;5074282;28;20468;-59
2022/01/19 01:57:53;;;;;;;21.17;12.47;;;;;;;;;;5074284;28;20484;-59
2022/01/19 02:00:21;;;;;;;19.00;11.77;;;;;;;;;;5074442;28;20504;-59
2022/01/19 02:02:48;;;;;;;17.70;12.13;;;;;;;;;;5074274;28;20430;-59
2022/01/19 02:05:14;;;;;;;22.37;11.87;;;;;;;;;;5074122;28;20441;-58
2022/01/19 02:07:46;;;;;;;17.57;12.37;;;;;;;;;;5074112;28;20430;-60
2022/01/19 02:10:34;;;;;;;16.60;10.93;;;;;;;;;;5074340;28;20537;-60
2022/01/19 02:24:11;;;;;;;20.57;11.47;;;;;;;;;;5051282;28;20449;-59
2022/01/19 02:40:23;;;;;;;19.07;11.47;;;;;;;;;;5073407;28;20421;-59
2022/01/19 02:43:06;;;;;;;17.47;11.20;;;;;;;;;;5073249;28;20529;-60
2022/01/19 02:51:03;;;;;;;14.77;10.47;;;;;;;;;;5073228;28;20429;-59
2022/01/19 02:53:32;;;;;;;15.43;10.97;;;;;;;;;;5072808;28;20964;-59
2022/01/19 02:55:58;;;;;;;16.00;10.57;;;;;;;;;;5072899;28;20581;-60
2022/01/19 02:58:25;;;;;;;20.13;11.67;;;;;;;;;;5072190;28;20512;-60
2022/01/19 03:08:43;;;;;;;16.87;10.63;;;;;;;;;;5072836;28;20797;-59
2022/01/19 03:09:14;;;;;;;16.03;11.17;;;;;;;;;;5072732;28;20430;-59
2022/01/19 03:11:40;;;;;;;17.53;12.23;;;;;;;;;;5072418;28;20442;-60
2022/01/19 03:14:08;;;;;;;15.53;11.50;;;;;;;;;;5072562;28;20426;-60
2022/01/19 03:16:34;;;;;;;18.67;11.97;;;;;;;;;;5072603;28;20504;-59
2022/01/19 03:19:00;;;;;;;22.93;12.60;;;;;;;;;;5072439;28;20434;-60
2022/01/19 03:21:26;;;;;;;20.33;11.80;;;;;;;;;;5072612;28;20442;-59
2022/01/19 03:23:52;;;;;;;18.73;11.83;;;;;;;;;;5072385;28;20204;-59
2022/01/19 03:26:20;;;;;;;17.30;12.07;;;;;;;;;;5072601;28;20771;-60
2022/01/19 03:28:46;;;;;;;16.53;10.97;;;;;;;;;;5072389;28;20227;-59
2022/01/19 03:31:12;;;;;;;22.93;13.33;;;;;;;;;;5072310;28;20462;-59
2022/01/19 03:33:38;;;;;;;20.40;11.87;;;;;;;;;;5072279;28;20199;-59
2022/01/19 03:36:04;;;;;;;21.30;13.20;;;;;;;;;;5072230;28;20906;-60
2022/01/19 03:38:30;;;;;;;17.80;12.87;;;;;;;;;;5072426;28;20477;-60
2022/01/19 03:40:56;;;;;;;18.57;11.60;;;;;;;;;;5072162;28;20461;-59
2022/01/19 03:43:24;;;;;;;19.70;12.20;;;;;;;;;;5072202;28;20654;-60
2022/01/19 03:45:52;;;;;;;22.10;13.17;;;;;;;;;;5072169;28;20430;-60
2022/01/19 03:48:34;;;;;;;23.97;14.53;;;;;;;;;;5072220;28;20495;-58
2022/01/19 03:51:00;;;;;;;22.87;14.77;;;;;;;;;;5072177;28;20446;-59
2022/01/19 03:53:26;;;;;;;26.33;16.43;;;;;;;;;;5072626;28;20476;-59
2022/01/19 03:55:52;;;;;;;27.63;17.00;;;;;;;;;;5071751;28;21060;-59
2022/01/19 03:58:18;;;;;;;27.13;17.77;;;;;;;;;;5072141;28;20541;-60
2022/01/19 04:00:46;;;;;;;26.63;17.03;;;;;;;;;;5071870;28;20438;-59
2022/01/19 04:03:17;;;;;;;28.93;17.80;;;;;;;;;;5071868;28;20446;-59
2022/01/19 04:05:55;;;;;;;28.43;17.23;;;;;;;;;;5071796;28;20494;-59
2022/01/19 04:08:21;;;;;;;27.27;17.37;;;;;;;;;;5071887;28;20923;-59
2022/01/19 04:10:47;;;;;;;35.73;18.47;;;;;;;;;;5071600;28;20771;-59
2022/01/19 04:13:32;;;;;;;31.27;17.30;;;;;;;;;;5071959;28;20497;-59
2022/01/19 04:15:59;;;;;;;29.20;17.60;;;;;;;;;;5071787;28;20473;-59
2022/01/19 04:18:26;;;;;;;30.57;18.37;;;;;;;;;;5071704;28;20966;-59
2022/01/19 04:20:52;;;;;;;31.77;17.60;;;;;;;;;;5071566;28;20445;-59
2022/01/19 04:23:19;;;;;;;28.90;16.93;;;;;;;;;;5071869;28;20441;-59
2022/01/19 04:25:45;;;;;;;26.53;15.77;;;;;;;;;;5071744;28;20943;-59
2022/01/19 04:28:11;;;;;;;30.63;17.47;;;;;;;;;;5071630;28;20438;-60
2022/01/19 04:30:38;;;;;;;30.70;17.97;;;;;;;;;;5071692;28;20441;-59
2022/01/19 04:33:13;;;;;;;34.33;17.93;;;;;;;;;;5071522;28;20437;-60
2022/01/19 04:35:51;;;;;;;31.10;17.30;;;;;;;;;;5071709;28;20479;-60
2022/01/19 05:05:10;;;;;;;32.57;16.87;;;;;;;;;;5071339;28;20418;-59
2022/01/19 05:08:18;;;;;;;29.17;15.23;;;;;;;;;;5071379;28;20231;-59
2022/01/19 05:15:52;;;;;;;28.97;14.93;;;;;;;;;;5071469;28;20472;-58
2022/01/19 05:18:18;;;;;;;27.20;15.27;;;;;;;;;;5071230;28;20430;-58
2022/01/19 05:20:47;;;;;;;28.73;15.23;;;;;;;;;;5071315;28;20809;-58
2022/01/19 05:23:14;;;;;;;23.97;14.83;;;;;;;;;;5073734;28;20437;-59
2022/01/19 05:25:40;;;;;;;28.30;14.93;;;;;;;;;;5074773;28;20432;-59
2022/01/19 05:28:06;;;;;;;27.93;13.97;;;;;;;;;;5074647;28;20422;-59
2022/01/19 05:30:32;;;;;;;25.00;15.20;;;;;;;;;;5074794;28;20426;-59
2022/01/19 05:32:58;;;;;;;24.73;13.87;;;;;;;;;;5074529;28;20191;-59
2022/01/19 05:35:24;;;;;;;23.57;13.53;;;;;;;;;;5074461;28;20469;-59
2022/01/19 05:37:52;;;;;;;21.50;13.63;;;;;;;;;;5074570;28;20670;-59
2022/01/19 05:40:18;;;;;;;22.20;14.37;;;;;;;;;;5074492;28;20453;-59
2022/01/19 05:42:46;;;;;;;25.03;13.90;;;;;;;;;;5074571;28;20430;-60
2022/01/19 05:45:12;;;;;;;22.70;13.07;;;;;;;;;;5074332;28;20441;-60
2022/01/19 05:47:38;;;;;;;25.60;13.60;;;;;;;;;;5074449;28;20430;-59
2022/01/19 05:50:04;;;;;;;24.30;12.73;;;;;;;;;;5074482;28;20449;-59
2022/01/19 05:52:30;;;;;;;21.50;12.90;;;;;;;;;;5074297;28;20195;-59
2022/01/19 05:54:58;;;;;;;24.63;12.33;;;;;;;;;;5073921;28;20457;-59
2022/01/19 05:57:24;;;;;;;23.83;11.67;;;;;;;;;;5074009;28;20497;-60
2022/01/19 05:59:50;;;;;;;22.27;12.80;;;;;;;;;;5074021;28;20856;-58
2022/01/19 06:02:16;;;;;;;22.77;11.90;;;;;;;;;;5073930;28;20449;-59
2022/01/19 06:04:42;;;;;;;19.33;12.30;;;;;;;;;;5073935;28;20199;-58
2022/01/19 06:07:08;;;;;;;24.07;12.40;;;;;;;;;;5073906;28;20434;-59
2022/01/19 06:09:36;;;;;;;20.10;11.40;;;;;;;;;;5074012;28;20200;-60
2022/01/19 06:12:05;;;;;;;27.73;15.60;;;;;;;;;;5073793;28;20470;-59
2022/01/19 06:14:32;;;;;;;19.30;11.90;;;;;;;;;;5073728;28;20450;-60
2022/01/19 06:16:58;;;;;;;18.97;10.00;;;;;;;;;;5073073;28;20865;-59
2022/01/19 06:19:24;;;;;;;17.13;9.93;;;;;;;;;;5073327;28;20896;-58
2022/01/19 06:21:51;;;;;;;18.47;11.27;;;;;;;;;;5073538;28;20454;-59
2022/01/19 06:24:17;;;;;;;16.37;9.57;;;;;;;;;;5073541;28;20787;-59
2022/01/19 06:26:43;;;;;;;19.60;10.23;;;;;;;;;;5073485;28;20466;-60
2022/01/19 06:29:10;;;;;;;15.60;9.63;;;;;;;;;;5073236;28;20434;-59
2022/01/19 06:31:36;;;;;;;16.80;9.80;;;;;;;;;;5073475;28;20450;-59
2022/01/19 06:34:02;;;;;;;13.87;8.67;;;;;;;;;;5073005;28;20429;-60
2022/01/19 06:36:28;;;;;;;18.10;9.43;;;;;;;;;;5073207;28;20632;-60
2022/01/19 06:38:54;;;;;;;15.87;9.13;;;;;;;;;;5073182;28;20442;-59
2022/01/19 06:41:20;;;;;;;14.23;9.00;;;;;;;;;;5073054;28;20257;-59
2022/01/19 06:43:46;;;;;;;17.20;9.80;;;;;;;;;;5073239;28;20430;-59
2022/01/19 06:46:13;;;;;;;12.93;8.57;;;;;;;;;;5073014;28;20422;-59
2022/01/19 06:48:40;;;;;;;14.77;8.67;;;;;;;;;;5072848;28;20258;-59
2022/01/19 06:51:05;;;;;;;14.20;9.43;;;;;;;;;;5072845;28;20434;-58
2022/01/19 06:53:31;;;;;;;16.40;9.47;;;;;;;;;;5073125;28;20456;-59
2022/01/19 06:55:57;;;;;;;16.53;9.30;;;;;;;;;;5072641;28;20705;-58
2022/01/19 06:58:23;;;;;;;13.93;9.13;;;;;;;;;;5072869;28;20430;-58
2022/01/19 07:00:50;;;;;;;13.87;9.70;;;;;;;;;;5072850;28;20260;-59
2022/01/19 07:03:17;;;;;;;14.73;9.47;;;;;;;;;;5072551;28;20294;-59
2022/01/19 07:05:43;;;;;;;13.97;8.73;;;;;;;;;;5072823;28;20457;-59
2022/01/19 07:08:09;;;;;;;14.80;9.53;;;;;;;;;;5072478;28;21007;-59
2022/01/19 07:10:35;;;;;;;17.53;10.23;;;;;;;;;;5072628;28;20483;-59
2022/01/19 07:13:02;;;;;;;12.13;9.43;;;;;;;;;;5072493;28;20469;-59
2022/01/19 07:15:28;;;;;;;12.27;9.40;;;;;;;;;;5072540;28;20499;-58
2022/01/19 07:17:54;;;;;;;15.03;10.40;;;;;;;;;;5072396;28;20948;-58
2022/01/19 07:20:21;;;;;;;14.33;9.93;;;;;;;;;;5072368;28;20437;-59
2022/01/19 07:22:48;;;;;;;14.80;9.73;;;;;;;;;;5072571;28;20206;-58
2022/01/19 07:25:14;;;;;;;16.83;9.93;;;;;;;;;;5072406;28;20861;-58
2022/01/19 07:27:40;;;;;;;13.43;8.97;;;;;;;;;;5071946;28;20426;-58
2022/01/19 07:30:07;;;;;;;15.23;9.97;;;;;;;;;;5072119;28;20473;-59
2022/01/19 07:32:35;;;;;;;15.53;10.50;;;;;;;;;;5072651;28;20452;-59
2022/01/19 07:35:01;;;;;;;14.00;9.50;;;;;;;;;;5072338;28;20923;-60
2022/01/19 07:37:28;;;;;;;12.90;9.13;;;;;;;;;;5072033;28;20494;-60
2022/01/19 07:39:54;;;;;;;14.10;10.03;;;;;;;;;;5072332;28;20233;-60
2022/01/19 07:42:20;;;;;;;15.77;9.97;;;;;;;;;;5072311;28;20995;-59
2022/01/19 07:44:46;;;;;;;9.90;8.70;;;;;;;;;;5071850;28;20196;-60
2022/01/19 07:47:12;;;;;;;12.80;9.43;;;;;;;;;;5071724;28;20418;-59
2022/01/19 07:49:38;;;;;;;10.87;8.27;;;;;;;;;;5072082;28;20434;-59
2022/01/19 07:55:05;;;;;;;15.00;9.37;;;;;;;;;;5066093;28;20548;-60
2022/01/19 07:57:31;;;;;;;13.37;9.73;;;;;;;;;;5071914;28;21040;-59
2022/01/19 07:59:57;;;;;;;13.70;9.70;;;;;;;;;;5071930;28;20446;-59
2022/01/19 08:02:30;;;;;;;14.97;9.27;;;;;;;;;;5071757;28;20445;-59
2022/01/19 08:04:56;;;;;;;17.03;9.90;;;;;;;;;;5071851;28;20207;-58
2022/01/19 08:07:22;;;;;;;12.53;9.53;;;;;;;;;;5071755;28;20503;-58
2022/01/19 08:09:48;;;;;;;14.23;9.80;;;;;;;;;;5072016;28;20919;-59
2022/01/19 08:12:16;;;;;;;16.47;10.57;;;;;;;;;;5071705;28;20478;-58
2022/01/19 08:14:42;;;;;;;13.40;10.70;;;;;;;;;;5071899;28;20238;-58
2022/01/19 08:17:08;;;;;;;14.10;10.80;;;;;;;;;;5071790;28;20887;-59
2022/01/19 08:19:34;;;;;;;14.83;10.33;;;;;;;;;;5072002;28;20195;-59
2022/01/19 08:22:00;;;;;;;14.83;10.00;;;;;;;;;;5071702;28;20442;-58
2022/01/19 08:24:26;;;;;;;14.60;10.13;;;;;;;;;;5071464;28;20195;-59
2022/01/19 08:26:54;;;;;;;15.07;9.43;;;;;;;;;;5071749;28;20611;-58
2022/01/19 08:29:22;;;;;;;12.73;9.90;;;;;;;;;;5071687;28;20219;-58
2022/01/19 08:31:47;;;;;;;14.13;9.63;;;;;;;;;;5071576;28;21031;-58
2022/01/19 08:34:13;;;;;;;10.90;9.77;;;;;;;;;;5071556;28;20516;-57
2022/01/19 08:36:41;;;;;;;13.67;9.80;;;;;;;;;;5071557;28;20614;-59
2022/01/19 08:39:07;;;;;;;12.50;10.17;;;;;;;;;;5071444;28;21023;-58
2022/01/19 08:41:33;;;;;;;12.90;8.87;;;;;;;;;;5071616;28;20434;-59
2022/01/19 08:43:59;;;;;;;11.10;9.03;;;;;;;;;;5071571;28;20802;-59
2022/01/19 08:46:27;;;;;;;13.60;9.93;;;;;;;;;;5071425;28;20200;-57
2022/01/19 08:48:53;;;;;;;11.30;10.13;;;;;;;;;;5071362;28;20784;-59
2022/01/19 08:51:19;;;;;;;12.30;10.40;;;;;;;;;;5071554;28;20445;-59
2022/01/19 08:53:45;;;;;;;16.73;10.60;;;;;;;;;;5071427;28;20226;-58
2022/01/19 08:56:11;;;;;;;12.67;10.20;;;;;;;;;;5071054;28;20775;-58
2022/01/19 08:58:37;;;;;;;13.80;10.20;;;;;;;;;;5075250;28;20227;-59
2022/01/19 09:01:03;;;;;;;18.93;11.40;;;;;;;;;;5075403;28;20252;-59
2022/01/19 09:03:31;;;;;;;13.13;10.20;;;;;;;;;;5075087;28;20465;-59
2022/01/19 09:05:57;;;;;;;12.07;10.33;;;;;;;;;;5074589;28;20788;-58
2022/01/19 09:08:23;;;;;;;12.00;9.90;;;;;;;;;;5074898;28;20503;-58
2022/01/19 09:10:52;;;;;;;16.23;10.60;;;;;;;;;;5075157;28;20935;-59
2022/01/19 09:13:18;;;;;;;13.77;10.43;;;;;;;;;;5074899;28;20318;-58
2022/01/19 09:15:44;;;;;;;14.63;10.80;;;;;;;;;;5074834;28;20481;-59
2022/01/19 09:18:10;;;;;;;11.13;10.03;;;;;;;;;;5074670;28;20195;-59
2022/01/19 09:20:37;;;;;;;16.07;11.33;;;;;;;;;;5074652;28;20437;-58
2022/01/19 09:23:04;;;;;;;13.53;10.57;;;;;;;;;;5075003;28;20215;-58
2022/01/19 09:25:30;;;;;;;13.53;10.57;;;;;;;;;;5074701;28;20833;-59
2022/01/19 09:27:56;;;;;;;13.10;11.73;;;;;;;;;;5074827;28;20430;-59
2022/01/19 09:30:24;;;;;;;13.37;11.50;;;;;;;;;;5074607;28;20779;-59
2022/01/19 09:33:05;;;;;;;13.43;11.20;;;;;;;;;;5074588;28;20662;-58
2022/01/19 09:35:39;;;;;;;14.10;11.80;;;;;;;;;;5074601;28;20430;-58
2022/01/19 09:38:06;;;;;;;18.60;12.27;;;;;;;;;;5074643;28;20516;-58
2022/01/19 09:40:33;;;;;;;13.30;11.53;;;;;;;;;;5074708;28;20446;-59
2022/01/19 09:42:59;;;;;;;14.37;12.57;;;;;;;;;;5074527;28;20433;-58
2022/01/19 09:45:25;;;;;;;14.27;12.53;;;;;;;;;;5074301;28;20788;-60
2022/01/19 09:47:51;;;;;;;13.10;11.80;;;;;;;;;;5074324;28;20434;-58
2022/01/19 09:50:17;;;;;;;13.33;11.93;;;;;;;;;;5074418;28;20444;-58
2022/01/19 09:52:43;;;;;;;13.87;12.50;;;;;;;;;;5074392;28;20685;-59
2022/01/19 09:55:10;;;;;;;14.43;12.90;;;;;;;;;;5074254;28;20212;-59
2022/01/19 09:57:36;;;;;;;15.17;13.53;;;;;;;;;;5074040;28;20477;-58
2022/01/19 10:00:03;;;;;;;15.07;13.37;;;;;;;;;;5074139;28;20461;-60
2022/01/19 10:02:29;;;;;;;15.00;13.43;;;;;;;;;;5073929;28;20449;-57
2022/01/19 10:04:55;;;;;;;14.93;13.33;;;;;;;;;;5073934;28;20438;-58
2022/01/19 10:07:22;;;;;;;15.43;13.87;;;;;;;;;;5073610;28;20192;-59
2022/01/19 10:09:49;;;;;;;16.03;13.77;;;;;;;;;;5074143;28;20441;-60
2022/01/19 10:17:55;;;;;;;15.83;14.33;;;;;;;;;;5073680;28;20612;-61
2022/01/19 10:20:22;;;;;;;15.10;13.57;;;;;;;;;;5073732;28;20559;-61
2022/01/19 10:22:49;;;;;;;15.50;13.90;;;;;;;;;;5069109;28;20438;-59
2022/01/19 10:25:15;;;;;;;15.60;14.00;;;;;;;;;;5073633;28;20453;-58
2022/01/19 10:27:43;;;;;;;15.27;13.63;;;;;;;;;;5073695;28;20968;-59
2022/01/19 10:30:14;;;;;;;17.03;15.03;;;;;;;;;;5073579;28;20249;-58
2022/01/19 10:32:41;;;;;;;16.87;15.17;;;;;;;;;;5073553;28;20903;-60
2022/01/19 10:35:15;;;;;;;17.70;15.90;;;;;;;;;;5073390;28;20445;-59
2022/01/19 10:37:41;;;;;;;17.73;15.43;;;;;;;;;;5073205;28;20885;-59
2022/01/19 10:40:13;;;;;;;19.00;17.00;;;;;;;;;;5073425;28;20434;-60
2022/01/19 10:42:39;;;;;;;18.27;16.40;;;;;;;;;;5073473;28;20461;-59
2022/01/19 10:45:07;;;;;;;19.33;17.37;;;;;;;;;;5071657;28;20438;-58
2022/01/19 10:47:41;;;;;;;20.37;18.17;;;;;;;;;;5073122;28;20569;-60
2022/01/19 10:50:07;;;;;;;18.83;16.90;;;;;;;;;;5073216;28;20442;-61
2022/01/19 10:52:34;;;;;;;19.73;17.57;;;;;;;;;;5073132;28;20615;-62
2022/01/19 10:55:01;;;;;;;21.90;19.30;;;;;;;;;;5073263;28;20537;-63
2022/01/19 10:57:28;;;;;;;19.80;17.63;;;;;;;;;;5073160;28;20527;-61
2022/01/19 11:02:51;;;;;;;21.77;19.20;;;;;;;;;;5089594;27;20617;-61
2022/01/19 11:05:18;;;;;;;20.87;18.67;;;;;;;;;;5089564;28;20441;-63
2022/01/19 11:07:44;;;;;;;20.63;18.47;;;;;;;;;;5089647;28;20516;-63
2022/01/19 11:10:18;;;;;;;24.37;21.87;;;;;;;;;;5089585;28;20441;-62
2022/01/19 11:12:47;;;;;;;23.17;20.67;;;;;;;;;;5087639;28;20421;-60
2022/01/19 11:15:14;;;;;;;23.30;20.90;;;;;;;;;;5089406;28;20935;-61
2022/01/19 11:17:40;;;;;;;25.23;22.13;;;;;;;;;;5087253;28;20524;-61
2022/01/19 11:20:09;;;;;;;23.10;20.63;;;;;;;;;;5089100;28;20935;-62
2022/01/19 11:22:40;;;;;;;23.77;20.63;;;;;;;;;;5088830;28;20709;-63
2022/01/19 11:25:10;;;;;;;23.60;21.10;;;;;;;;;;5088960;28;20524;-61
2022/01/19 11:27:37;;;;;;;24.60;20.70;;;;;;;;;;5088750;28;20938;-62
2022/01/19 11:30:10;;;;;;;23.83;21.43;;;;;;;;;;5088981;28;20463;-63
2022/01/19 11:32:36;;;;;;;24.53;21.90;;;;;;;;;;5088542;28;20935;-61
2022/01/19 11:35:03;;;;;;;25.13;22.53;;;;;;;;;;5088832;28;21022;-62
2022/01/19 11:37:37;;;;;;;24.40;21.87;;;;;;;;;;5088690;28;20481;-62
2022/01/19 11:40:08;;;;;;;24.17;21.57;;;;;;;;;;5088838;28;20779;-62
2022/01/19 11:42:34;;;;;;;24.53;22.03;;;;;;;;;;5088615;28;20505;-61
2022/01/19 11:45:00;;;;;;;22.43;20.20;;;;;;;;;;5088552;28;20470;-61
2022/01/19 11:47:29;;;;;;;24.43;21.30;;;;;;;;;;5088329;28;20433;-61
2022/01/19 11:49:56;;;;;;;22.37;20.13;;;;;;;;;;5088359;28;20797;-62
2022/01/19 11:52:25;;;;;;;21.43;19.33;;;;;;;;;;5088219;28;20923;-61
2022/01/19 11:55:08;;;;;;;21.37;19.07;;;;;;;;;;5088034;28;20487;-63
2022/01/19 11:57:34;;;;;;;22.30;19.40;;;;;;;;;;5088381;28;20456;-62
2022/01/19 12:00:09;;;;;;;22.33;20.03;;;;;;;;;;5088665;28;20436;-62
2022/01/19 12:02:37;;;;;;;20.53;18.37;;;;;;;;;;5088051;28;20876;-60
2022/01/19 12:05:14;;;;;;;21.90;19.53;;;;;;;;;;5080448;28;20430;-61
2022/01/19 12:07:41;;;;;;;21.83;19.53;;;;;;;;;;5068119;28;20442;-60
2022/01/19 12:10:10;;;;;;;21.93;19.57;;;;;;;;;;5068095;28;20426;-61
2022/01/19 12:12:44;;;;;;;21.97;19.63;;;;;;;;;;5063221;28;20443;-61
2022/01/19 12:15:25;;;;;;;22.43;19.47;;;;;;;;;;5054614;28;20579;-61
2022/01/19 12:17:54;;;;;;;21.60;19.00;;;;;;;;;;5054414;28;20489;-61
2022/01/19 12:20:35;;;;;;;21.40;19.10;;;;;;;;;;5054597;28;20443;-61
2022/01/19 12:23:16;;;;;;;20.63;18.20;;;;;;;;;;5054604;28;20783;-61
2022/01/19 12:28:50;;;;;;;21.17;19.07;;;;;;;;;;5044986;28;20451;-61
2022/01/19 12:31:32;;;;;;;20.13;17.87;;;;;;;;;;5053715;28;20558;-61
2022/01/19 12:34:20;;;;;;;21.47;19.27;;;;;;;;;;5054163;28;20438;-61
2022/01/19 12:36:48;;;;;;;21.60;18.90;;;;;;;;;;5054012;28;20495;-63
2022/01/19 12:39:31;;;;;;;22.07;19.77;;;;;;;;;;5054482;28;20438;-61
2022/01/19 12:42:00;;;;;;;21.77;19.47;;;;;;;;;;5053904;28;20543;-61
2022/01/19 12:44:43;;;;;;;24.17;21.03;;;;;;;;;;5054175;28;20921;-60
2022/01/19 12:47:36;;;;;;;22.97;19.20;;;;;;;;;;5054107;28;21004;-59
2022/01/19 12:50:17;;;;;;;24.10;19.97;;;;;;;;;;5018484;28;20447;-61
2022/01/19 12:52:44;;;;;;;21.80;19.37;;;;;;;;;;5053854;28;20438;-61
2022/01/19 12:55:13;;;;;;;23.03;19.57;;;;;;;;;;5054129;28;20470;-61
2022/01/19 12:57:41;;;;;;;21.37;18.47;;;;;;;;;;5053776;28;20816;-61
2022/01/19 13:00:08;;;;;;;22.53;19.40;;;;;;;;;;5053887;28;20547;-62
2022/01/19 13:02:34;;;;;;;23.67;19.63;;;;;;;;;;5053597;28;20487;-61
2022/01/19 13:05:03;;;;;;;23.37;19.10;;;;;;;;;;5053943;28;20472;-61
2022/01/19 13:07:31;;;;;;;23.70;19.03;;;;;;;;;;5053878;28;20199;-62
2022/01/19 13:10:06;;;;;;;22.70;18.87;;;;;;;;;;5053916;28;20522;-61
2022/01/19 13:12:35;;;;;;;22.20;18.90;;;;;;;;;;5053750;28;20439;-61
2022/01/19 13:15:02;;;;;;;24.30;19.63;;;;;;;;;;5053765;28;20820;-62
2022/01/19 13:17:39;;;;;;;24.53;19.13;;;;;;;;;;5053554;28;20538;-61
2022/01/19 13:20:09;;;;;;;24.10;20.13;;;;;;;;;;5053604;28;20434;-61
2022/01/19 13:22:43;;;;;;;24.10;19.90;;;;;;;;;;5053269;28;20486;-61
2022/01/19 13:25:14;;;;;;;25.37;19.03;;;;;;;;;;5052397;28;20434;-62
2022/01/19 13:27:41;;;;;;;28.17;19.07;;;;;;;;;;5053196;28;20525;-61
2022/01/19 13:30:12;;;;;;;28.27;20.43;;;;;;;;;;5053228;28;20997;-61
2022/01/19 13:32:39;;;;;;;27.20;20.50;;;;;;;;;;5052950;28;20790;-62
2022/01/19 13:35:06;;;;;;;25.03;19.97;;;;;;;;;;5053320;28;20518;-62
2022/01/19 13:37:33;;;;;;;25.47;19.63;;;;;;;;;;5053165;28;20450;-61
2022/01/19 13:40:01;;;;;;;26.53;19.53;;;;;;;;;;5053147;28;20474;-61
2022/01/19 13:42:35;;;;;;;28.53;20.60;;;;;;;;;;5052851;28;20467;-61
2022/01/19 13:45:09;;;;;;;23.33;19.27;;;;;;;;;;5053155;28;20491;-63
2022/01/19 13:47:53;;;;;;;22.93;18.33;;;;;;;;;;5052949;28;20439;-65
2022/01/19 13:50:19;;;;;;;24.47;17.93;;;;;;;;;;5051044;28;20964;-59
2022/01/19 13:52:45;;;;;;;22.80;17.87;;;;;;;;;;5072793;28;20430;-60
2022/01/19 13:55:16;;;;;;;23.80;18.97;;;;;;;;;;5072821;28;20454;-58
2022/01/19 13:57:42;;;;;;;22.17;18.13;;;;;;;;;;5072551;28;20445;-58
2022/01/19 14:00:10;;;;;;;26.00;19.83;;;;;;;;;;5072621;28;20491;-58
2022/01/19 14:02:36;;;;;;;26.27;18.30;;;;;;;;;;5072277;28;20493;-60
2022/01/19 14:05:04;;;;;;;24.07;18.40;;;;;;;;;;5072730;28;20480;-59
2022/01/19 14:07:30;;;;;;;25.53;19.43;;;;;;;;;;5072566;28;20461;-61
2022/01/19 14:10:04;;;;;;;25.77;19.20;;;;;;;;;;5072526;28;20430;-59
2022/01/19 14:12:30;;;;;;;25.20;19.57;;;;;;;;;;5072401;28;20438;-58
2022/01/19 14:14:56;;;;;;;23.83;18.73;;;;;;;;;;5072308;28;20429;-58
2022/01/19 14:17:27;;;;;;;23.90;18.33;;;;;;;;;;5072079;28;20442;-60
2022/01/19 14:19:53;;;;;;;22.30;18.23;;;;;;;;;;5072203;28;20797;-60
2022/01/19 14:22:24;;;;;;;24.10;19.23;;;;;;;;;;5072186;28;20481;-58
2022/01/19 14:24:53;;;;;;;24.93;19.03;;;;;;;;;;5072204;28;20446;-61
2022/01/19 14:27:32;;;;;;;26.73;18.70;;;;;;;;;;5072302;28;20788;-60
2022/01/19 14:29:59;;;;;;;23.73;19.07;;;;;;;;;;5072305;28;20958;-60
2022/01/19 14:32:39;;;;;;;28.57;19.73;;;;;;;;;;5071951;28;20512;-59
2022/01/19 14:35:19;;;;;;;26.10;19.30;;;;;;;;;;5071959;28;20464;-58
2022/01/19 14:37:56;;;;;;;25.47;19.53;;;;;;;;;;5072159;28;20438;-58
2022/01/19 14:40:22;;;;;;;25.83;19.90;;;;;;;;;;5071986;28;21019;-59
2022/01/19 14:42:50;;;;;;;27.50;20.23;;;;;;;;;;5072084;28;20568;-59
2022/01/19 14:45:23;;;;;;;27.73;19.70;;;;;;;;;;5071848;28;20210;-60
2022/01/19 14:47:51;;;;;;;25.90;20.13;;;;;;;;;;5065199;28;20450;-60
2022/01/19 14:50:18;;;;;;;28.20;21.30;;;;;;;;;;5072026;28;20489;-61
2022/01/19 14:52:44;;;;;;;29.23;20.93;;;;;;;;;;5071980;28;20955;-60
2022/01/19 14:55:12;;;;;;;25.60;19.63;;;;;;;;;;5071884;28;20473;-61
2022/01/19 14:57:38;;;;;;;26.43;20.17;;;;;;;;;;5071965;28;20204;-60
2022/01/19 15:00:06;;;;;;;26.77;21.13;;;;;;;;;;5071838;28;20432;-59
2022/01/19 15:02:31;;;;;;;26.10;19.83;;;;;;;;;;5071599;28;20240;-60
2022/01/19 15:04:57;;;;;;;26.63;19.67;;;;;;;;;;5071879;28;20434;-59
2022/01/19 15:07:23;;;;;;;26.37;20.40;;;;;;;;;;5072040;28;20296;-61
2022/01/19 15:09:49;;;;;;;27.00;19.33;;;;;;;;;;5071783;28;20683;-60
2022/01/19 15:12:17;;;;;;;25.07;19.13;;;;;;;;;;5071871;28;20191;-59
2022/01/19 15:14:45;;;;;;;25.80;19.40;;;;;;;;;;5069992;28;20654;-59
2022/01/19 15:17:11;;;;;;;25.97;19.30;;;;;;;;;;5071788;28;20460;-60
2022/01/19 15:19:37;;;;;;;24.77;20.10;;;;;;;;;;5071720;28;20440;-59
2022/01/19 15:22:04;;;;;;;25.37;19.93;;;;;;;;;;5071699;28;20614;-60
2022/01/19 15:24:30;;;;;;;26.93;20.60;;;;;;;;;;5067663;28;20843;-60
2022/01/19 15:26:56;;;;;;;26.80;20.60;;;;;;;;;;5069272;28;20446;-59
2022/01/19 15:29:23;;;;;;;24.03;20.63;;;;;;;;;;5071660;28;20196;-58
2022/01/19 15:31:50;;;;;;;27.97;19.57;;;;;;;;;;5071485;28;20731;-59
2022/01/19 15:34:16;;;;;;;25.30;19.83;;;;;;;;;;5071615;28;20440;-60
2022/01/19 15:36:42;;;;;;;24.60;20.17;;;;;;;;;;5071496;28;20450;-59
2022/01/19 15:39:08;;;;;;;26.13;20.23;;;;;;;;;;5069573;28;20446;-60
2022/01/19 15:41:36;;;;;;;28.57;21.67;;;;;;;;;;5071541;28;20211;-61
2022/01/19 15:44:02;;;;;;;26.10;21.30;;;;;;;;;;5071867;28;20444;-60
2022/01/19 15:46:30;;;;;;;26.60;21.63;;;;;;;;;;5071392;28;20448;-60
2022/01/19 15:48:55;;;;;;;29.03;22.13;;;;;;;;;;5073922;28;20456;-61
2022/01/19 15:51:21;;;;;;;31.00;23.43;;;;;;;;;;5075330;28;20430;-60
2022/01/19 15:53:48;;;;;;;30.80;22.63;;;;;;;;;;5074967;28;20710;-60
2022/01/19 15:56:14;;;;;;;28.70;21.87;;;;;;;;;;5075168;28;20204;-61